Time;durP1;ratioP1;P1;durP2;ratioP2;P2;SDS_P1;SDS_P2;PMS_P1;PMS_P2;Temp;Humidity;BMP_temperature;BMP_pressure;BME280_temperature;BME280_humidity;BME280_pressure;Samples;Min_cycle;Max_cycle;Signal;HPM_P1;HPM_P2
2022/01/09 00:01:29;;;;;;;7.93;7.43;;;4.80;99.90;;;;;;5052928;28;20276;-66
2022/01/09 00:03:55;;;;;;;7.80;7.40;;;4.80;99.90;;;;;;5052954;28;20170;-66
2022/01/09 00:06:21;;;;;;;7.60;7.17;;;4.80;99.90;;;;;;5052910;28;20175;-66
2022/01/09 00:08:47;;;;;;;7.90;7.50;;;4.90;99.90;;;;;;5053138;28;20274;-66
2022/01/09 00:11:14;;;;;;;7.80;7.40;;;4.90;99.90;;;;;;5053130;28;20194;-66
2022/01/09 00:13:39;;;;;;;7.30;7.00;;;4.90;99.90;;;;;;5052800;28;20232;-66
2022/01/09 00:16:05;;;;;;;7.80;7.50;;;4.90;99.90;;;;;;5052579;28;20182;-66
2022/01/09 00:18:31;;;;;;;7.60;7.30;;;4.80;99.90;;;;;;5052870;28;20190;-66
2022/01/09 00:20:57;;;;;;;7.97;7.57;;;4.80;99.90;;;;;;5052743;28;20205;-66
2022/01/09 00:23:23;;;;;;;7.33;7.03;;;4.90;99.90;;;;;;5051235;28;20171;-66
2022/01/09 00:25:49;;;;;;;7.20;6.90;;;4.90;99.90;;;;;;5051373;28;20636;-66
2022/01/09 00:28:15;;;;;;;7.17;6.87;;;4.90;99.90;;;;;;5052532;28;20198;-66
2022/01/09 00:30:40;;;;;;;7.17;6.87;;;4.80;99.90;;;;;;5052446;28;20207;-66
2022/01/09 00:33:06;;;;;;;7.60;7.30;;;4.80;99.90;;;;;;5052487;28;20637;-65
2022/01/09 00:35:33;;;;;;;7.60;7.30;;;4.80;99.90;;;;;;5052640;28;20171;-65
2022/01/09 00:37:58;;;;;;;7.33;7.03;;;4.80;99.90;;;;;;5052433;28;20676;-67
2022/01/09 00:40:24;;;;;;;7.47;7.17;;;4.80;99.90;;;;;;5084488;28;20252;-65
2022/01/09 00:42:50;;;;;;;7.83;7.43;;;4.80;99.90;;;;;;5051998;28;20178;-65
2022/01/09 00:45:16;;;;;;;7.93;7.40;;;4.80;99.90;;;;;;5052405;28;20696;-66
2022/01/09 00:47:42;;;;;;;7.20;6.90;;;4.80;99.90;;;;;;5052040;28;20199;-65
2022/01/09 00:50:10;;;;;;;7.13;6.83;;;4.80;99.90;;;;;;5051971;28;20258;-65
2022/01/09 00:52:36;;;;;;;6.90;6.60;;;4.90;99.90;;;;;;5052010;28;20580;-65
2022/01/09 00:55:03;;;;;;;6.90;6.60;;;4.90;99.90;;;;;;5052321;28;20174;-66
2022/01/09 00:57:29;;;;;;;6.90;6.60;;;4.90;99.90;;;;;;5050736;28;20282;-66
2022/01/09 00:59:55;;;;;;;6.60;6.20;;;4.90;99.90;;;;;;5051851;28;20293;-68
2022/01/09 01:02:20;;;;;;;7.33;6.93;;;4.90;99.90;;;;;;5050938;28;20174;-65
2022/01/09 01:04:48;;;;;;;7.13;6.83;;;4.90;99.90;;;;;;5052076;28;20254;-67
2022/01/09 01:07:14;;;;;;;6.80;6.50;;;4.90;99.90;;;;;;5051672;28;20240;-67
2022/01/09 01:09:39;;;;;;;6.47;6.17;;;4.90;99.90;;;;;;5051973;28;20167;-66
2022/01/09 01:12:05;;;;;;;6.50;6.30;;;4.90;99.90;;;;;;5051422;28;20190;-66
2022/01/09 01:14:32;;;;;;;6.60;6.30;;;4.90;99.90;;;;;;5050447;28;20170;-66
2022/01/09 01:16:58;;;;;;;6.60;6.30;;;4.90;99.90;;;;;;5051590;28;20171;-65
2022/01/09 01:19:23;;;;;;;6.40;6.20;;;5.00;99.90;;;;;;5050607;28;20308;-65
2022/01/09 01:21:49;;;;;;;7.10;6.80;;;5.00;99.90;;;;;;5051371;28;20202;-65
2022/01/09 01:24:17;;;;;;;7.10;6.70;;;5.10;99.90;;;;;;5051384;28;20632;-65
2022/01/09 01:26:43;;;;;;;6.97;6.67;;;5.10;99.90;;;;;;5051591;28;20178;-66
2022/01/09 01:29:10;;;;;;;6.93;6.63;;;5.20;99.90;;;;;;5050326;28;20193;-66
2022/01/09 01:31:35;;;;;;;7.00;6.70;;;5.20;99.90;;;;;;5051392;28;20194;-65
2022/01/09 01:34:01;;;;;;;7.17;6.87;;;5.30;99.90;;;;;;5051258;28;20167;-69
2022/01/09 01:36:26;;;;;;;6.97;6.67;;;5.30;99.90;;;;;;5051192;28;20179;-66
2022/01/09 01:38:52;;;;;;;6.70;6.20;;;5.40;99.90;;;;;;5064053;28;20213;-65
2022/01/09 01:41:18;;;;;;;6.70;6.40;;;5.40;99.90;;;;;;5071426;28;20255;-66
2022/01/09 01:43:43;;;;;;;6.90;6.40;;;5.50;99.90;;;;;;5064694;28;20671;-66
2022/01/09 01:46:09;;;;;;;7.53;7.03;;;5.60;99.90;;;;;;5051759;28;20166;-68
2022/01/09 01:48:35;;;;;;;7.30;6.90;;;5.60;99.90;;;;;;5050989;28;20236;-66
2022/01/09 01:51:00;;;;;;;7.53;6.93;;;5.70;99.90;;;;;;5051555;28;20735;-65
2022/01/09 01:53:26;;;;;;;7.60;7.20;;;5.70;99.90;;;;;;5051025;28;20185;-65
2022/01/09 01:55:55;;;;;;;8.00;7.60;;;5.80;99.90;;;;;;5050125;28;20258;-67
2022/01/09 01:58:23;;;;;;;7.20;6.80;;;5.80;99.90;;;;;;5050903;28;20282;-66
2022/01/09 02:00:49;;;;;;;7.63;7.23;;;5.80;99.90;;;;;;5051307;28;20289;-66
2022/01/09 02:03:14;;;;;;;7.70;7.30;;;5.80;99.90;;;;;;5049608;28;20246;-66
2022/01/09 02:05:44;;;;;;;7.70;7.30;;;5.80;99.90;;;;;;5051046;28;20175;-65
2022/01/09 02:08:10;;;;;;;8.03;7.53;;;5.80;99.90;;;;;;5051070;28;20182;-67
2022/01/09 02:10:40;;;;;;;8.50;8.03;;;5.80;99.90;;;;;;5049672;28;20205;-68
2022/01/09 02:13:06;;;;;;;27.03;25.57;;;5.70;99.90;;;;;;5052745;28;20175;-65
2022/01/09 02:15:45;;;;;;;11.13;10.63;;;5.50;99.90;;;;;;5054995;28;20190;-65
2022/01/09 02:18:16;;;;;;;18.37;17.57;;;5.30;99.90;;;;;;5055050;28;20691;-66
2022/01/09 02:20:41;;;;;;;7.33;6.93;;;5.10;99.90;;;;;;5053857;28;20672;-66
2022/01/09 02:23:09;;;;;;;7.40;7.10;;;5.00;99.90;;;;;;5055107;28;20265;-66
2022/01/09 02:25:36;;;;;;;8.73;8.33;;;4.80;99.90;;;;;;5054773;28;20190;-67
2022/01/09 02:28:03;;;;;;;9.33;8.93;;;4.70;99.90;;;;;;5054933;28;20197;-67
2022/01/09 02:30:32;;;;;;;8.67;8.10;;;4.60;99.90;;;;;;5054697;28;20174;-67
2022/01/09 02:33:03;;;;;;;6.70;6.40;;;4.60;99.90;;;;;;5053409;28;20652;-67
2022/01/09 02:35:29;;;;;;;7.20;6.90;;;4.60;99.90;;;;;;5054376;28;20178;-67
2022/01/09 02:37:55;;;;;;;8.70;8.30;;;4.50;99.90;;;;;;5053583;28;20225;-67
2022/01/09 02:40:22;;;;;;;7.67;7.33;;;4.50;99.90;;;;;;5054281;28;20633;-67
2022/01/09 02:42:49;;;;;;;6.77;6.47;;;4.50;99.90;;;;;;5053150;28;20167;-67
2022/01/09 02:45:20;;;;;;;143.87;135.27;;;4.50;99.90;;;;;;5054420;28;20188;-67
2022/01/09 02:47:46;;;;;;;16.30;15.50;;;4.60;99.90;;;;;;5053340;28;20354;-67
2022/01/09 02:50:28;;;;;;;18.40;17.17;;;4.60;99.90;;;;;;5054300;28;20351;-67
2022/01/09 02:53:11;;;;;;;7.33;6.93;;;4.60;99.90;;;;;;5053110;28;20182;-67
2022/01/09 02:55:37;;;;;;;8.37;7.13;;;4.60;99.90;;;;;;5054285;28;20171;-67
2022/01/09 02:58:03;;;;;;;12.40;11.60;;;4.60;99.90;;;;;;5053081;28;20198;-67
2022/01/09 03:00:32;;;;;;;8.20;7.50;;;4.60;99.90;;;;;;5052864;28;20256;-67
2022/01/09 03:02:58;;;;;;;31.97;30.53;;;4.70;99.90;;;;;;5052848;28;20174;-67
2022/01/09 03:05:24;;;;;;;9.40;8.33;;;4.70;99.90;;;;;;5052713;28;20175;-67
2022/01/09 03:07:50;;;;;;;8.40;7.53;;;4.70;99.90;;;;;;5054284;28;20190;-67
2022/01/09 03:10:18;;;;;;;8.60;7.77;;;4.80;99.90;;;;;;5052524;28;20179;-67
2022/01/09 03:12:44;;;;;;;8.27;7.70;;;4.80;99.90;;;;;;5054073;28;20171;-67
2022/01/09 03:15:11;;;;;;;10.63;9.33;;;4.80;99.90;;;;;;5052783;28;20186;-67
2022/01/09 03:17:38;;;;;;;7.83;7.23;;;4.80;99.90;;;;;;5052813;28;20207;-67
2022/01/09 03:20:06;;;;;;;17.17;15.40;;;4.90;99.90;;;;;;5052497;28;20203;-67
2022/01/09 03:22:31;;;;;;;9.07;8.17;;;4.90;99.90;;;;;;5053727;28;20202;-67
2022/01/09 03:24:57;;;;;;;8.37;7.67;;;5.00;99.90;;;;;;5051780;28;20550;-67
2022/01/09 03:27:23;;;;;;;7.80;7.30;;;5.00;99.90;;;;;;5052556;28;20542;-67
2022/01/09 03:29:48;;;;;;;10.03;9.27;;;5.00;99.90;;;;;;5053716;28;20182;-67
2022/01/09 03:32:14;;;;;;;8.93;8.13;;;5.00;99.90;;;;;;5052314;28;20174;-67
2022/01/09 03:34:40;;;;;;;8.43;7.83;;;4.90;99.90;;;;;;5053587;28;20190;-67
2022/01/09 03:37:06;;;;;;;12.37;9.00;;;4.90;99.90;;;;;;5053107;28;20536;-67
2022/01/09 03:39:32;;;;;;;11.77;11.27;;;4.90;99.90;;;;;;5053585;28;20189;-67
2022/01/09 03:41:59;;;;;;;15.87;7.67;;;4.90;99.90;;;;;;5053440;28;20281;-67
2022/01/09 03:44:28;;;;;;;8.87;7.13;;;4.80;99.90;;;;;;5051847;28;20334;-67
2022/01/09 03:46:54;;;;;;;8.03;7.33;;;4.80;99.90;;;;;;5052395;28;20720;-67
2022/01/09 03:49:20;;;;;;;10.50;7.77;;;4.90;99.90;;;;;;5053311;28;20269;-67
2022/01/09 03:51:50;;;;;;;8.33;7.33;;;4.90;99.90;;;;;;5053585;28;20257;-67
2022/01/09 03:54:16;;;;;;;15.13;9.20;;;4.90;99.90;;;;;;5053447;28;20174;-66
2022/01/09 03:56:42;;;;;;;17.60;8.70;;;5.00;99.90;;;;;;5053419;28;20221;-67
2022/01/09 03:59:07;;;;;;;8.90;8.00;;;5.10;99.90;;;;;;5053187;28;20207;-67
2022/01/09 04:01:33;;;;;;;13.23;8.07;;;5.20;99.90;;;;;;5053453;28;20206;-67
2022/01/09 04:03:59;;;;;;;10.10;8.43;;;5.20;99.90;;;;;;5053127;28;20208;-67
2022/01/09 04:06:24;;;;;;;15.80;9.10;;;5.30;99.90;;;;;;5051482;28;20179;-67
2022/01/09 04:08:52;;;;;;;11.27;10.27;;;5.30;99.90;;;;;;5053572;28;20191;-67
2022/01/09 04:11:23;;;;;;;10.57;9.47;;;5.30;99.90;;;;;;5052914;28;20181;-67
2022/01/09 04:13:50;;;;;;;17.87;10.63;;;5.30;99.90;;;;;;5052874;28;20167;-66
2022/01/09 04:16:15;;;;;;;13.30;11.73;;;5.40;99.90;;;;;;5051385;28;20183;-67
2022/01/09 04:18:41;;;;;;;11.87;10.60;;;5.40;99.90;;;;;;5051654;28;20325;-67
2022/01/09 04:21:06;;;;;;;88.77;82.77;;;5.40;99.90;;;;;;5052051;28;20211;-67
2022/01/09 04:23:32;;;;;;;14.07;12.47;;;5.40;99.90;;;;;;5052521;28;20173;-67
2022/01/09 04:25:58;;;;;;;18.60;11.67;;;5.50;99.90;;;;;;5051345;28;20179;-68
2022/01/09 04:28:23;;;;;;;22.90;21.07;;;5.50;99.90;;;;;;5052482;28;20183;-67
2022/01/09 04:30:49;;;;;;;10.00;8.93;;;5.50;99.90;;;;;;5052580;28;20175;-66
2022/01/09 04:33:14;;;;;;;24.83;22.57;;;5.50;99.90;;;;;;5051149;28;20588;-67
2022/01/09 04:35:41;;;;;;;22.10;9.13;;;5.50;99.90;;;;;;5052344;28;20209;-66
2022/01/09 04:38:07;;;;;;;17.10;15.80;;;5.50;99.90;;;;;;5052411;28;20191;-67
2022/01/09 04:40:33;;;;;;;14.60;8.47;;;5.40;99.90;;;;;;5051995;28;20552;-66
2022/01/09 04:43:01;;;;;;;31.53;29.33;;;5.50;99.90;;;;;;5052289;28;20178;-67
2022/01/09 04:45:28;;;;;;;15.90;10.27;;;5.50;99.90;;;;;;5052196;28;20532;-66
2022/01/09 04:47:59;;;;;;;17.43;9.47;;;5.40;99.90;;;;;;5052213;28;20190;-67
2022/01/09 04:50:27;;;;;;;11.33;8.83;;;5.40;99.90;;;;;;5032530;28;20657;-67
2022/01/09 04:53:00;;;;;;;11.33;10.33;;;5.40;99.90;;;;;;5031096;28;20289;-65
2022/01/09 04:55:27;;;;;;;16.37;10.07;;;5.50;99.90;;;;;;5050769;28;20498;-67
2022/01/09 04:57:53;;;;;;;35.17;33.23;;;5.50;99.90;;;;;;5052277;28;20273;-67
2022/01/09 05:00:19;;;;;;;9.53;8.57;;;5.50;99.90;;;;;;5051680;28;20344;-67
2022/01/09 05:02:44;;;;;;;10.73;8.30;;;5.50;99.90;;;;;;5051835;28;20548;-67
2022/01/09 05:05:11;;;;;;;12.13;9.13;;;5.50;99.90;;;;;;5050471;28;20364;-66
2022/01/09 05:07:37;;;;;;;16.63;8.87;;;5.50;99.90;;;;;;5051892;28;20263;-66
2022/01/09 05:10:05;;;;;;;17.57;16.23;;;5.50;99.90;;;;;;5051731;28;20202;-68
2022/01/09 05:12:30;;;;;;;9.47;8.50;;;5.40;99.90;;;;;;5051379;28;20167;-66
2022/01/09 05:14:56;;;;;;;9.17;8.10;;;5.40;99.90;;;;;;5050397;28;20670;-66
2022/01/09 05:17:22;;;;;;;8.93;8.13;;;5.40;99.90;;;;;;5051818;28;20205;-66
2022/01/09 05:19:50;;;;;;;16.47;9.53;;;5.40;99.90;;;;;;5050801;28;20202;-66
2022/01/09 05:22:16;;;;;;;9.30;8.40;;;5.30;99.90;;;;;;5051399;28;20174;-67
2022/01/09 05:24:41;;;;;;;10.00;9.00;;;5.30;99.90;;;;;;5050268;28;20179;-67
2022/01/09 05:27:07;;;;;;;13.93;8.07;;;5.30;99.90;;;;;;5050438;28;20232;-67
2022/01/09 05:29:32;;;;;;;9.23;7.93;;;5.30;99.90;;;;;;5051380;28;20304;-67
2022/01/09 05:31:58;;;;;;;12.00;8.03;;;5.30;99.90;;;;;;5050178;28;20232;-66
2022/01/09 05:34:24;;;;;;;8.57;7.97;;;5.30;99.90;;;;;;5051156;28;20187;-67
2022/01/09 05:36:49;;;;;;;13.00;8.70;;;5.30;99.90;;;;;;5051673;28;20200;-68
2022/01/09 05:39:15;;;;;;;13.50;12.57;;;5.30;99.90;;;;;;5049830;28;20249;-66
2022/01/09 05:41:42;;;;;;;22.47;8.20;;;5.30;99.90;;;;;;5051233;28;20248;-66
2022/01/09 05:44:08;;;;;;;12.83;8.20;;;5.30;99.90;;;;;;5050984;28;20183;-69
2022/01/09 05:46:34;;;;;;;18.70;9.33;;;5.30;99.90;;;;;;5057780;28;20277;-68
2022/01/09 05:48:59;;;;;;;14.57;7.97;;;5.40;99.90;;;;;;5069738;28;20255;-66
2022/01/09 05:51:25;;;;;;;11.20;10.07;;;5.40;99.90;;;;;;5070285;28;20210;-65
2022/01/09 05:53:51;;;;;;;8.43;7.77;;;5.40;99.90;;;;;;5049783;28;20244;-66
2022/01/09 05:56:16;;;;;;;9.77;8.87;;;5.50;99.90;;;;;;5049936;28;20584;-68
2022/01/09 05:58:42;;;;;;;9.10;7.87;;;5.50;99.90;;;;;;5049722;28;20199;-67
2022/01/09 06:01:08;;;;;;;8.60;8.07;;;5.50;99.90;;;;;;5049957;28;20209;-67
2022/01/09 06:03:34;;;;;;;8.10;7.43;;;5.50;99.90;;;;;;5050753;28;20183;-66
2022/01/09 06:05:59;;;;;;;8.63;7.77;;;5.50;99.90;;;;;;5051413;28;20175;-67
2022/01/09 06:08:26;;;;;;;8.73;7.27;;;5.40;99.90;;;;;;5050797;28;20543;-67
2022/01/09 06:10:51;;;;;;;7.93;7.20;;;5.40;99.90;;;;;;5050266;28;20636;-66
2022/01/09 06:13:17;;;;;;;12.27;11.17;;;5.40;99.90;;;;;;5050597;28;20197;-66
2022/01/09 06:15:42;;;;;;;9.57;8.70;;;5.50;99.90;;;;;;5051255;28;20243;-67
2022/01/09 06:18:08;;;;;;;23.97;8.83;;;5.40;99.90;;;;;;5049648;28;20543;-67
2022/01/09 06:20:34;;;;;;;10.73;8.13;;;5.40;99.90;;;;;;5049716;28;20202;-66
2022/01/09 06:23:00;;;;;;;8.70;8.10;;;5.50;99.90;;;;;;5050667;28;20175;-66
2022/01/09 06:25:25;;;;;;;7.50;6.90;;;5.50;99.90;;;;;;5051072;28;20652;-66
2022/01/09 06:27:51;;;;;;;11.73;7.57;;;5.40;99.90;;;;;;5049665;28;20207;-68
2022/01/09 06:30:17;;;;;;;9.13;8.03;;;5.40;99.90;;;;;;5049615;28;20644;-66
2022/01/09 06:32:43;;;;;;;11.77;8.70;;;5.30;99.90;;;;;;5050483;28;20194;-67
2022/01/09 06:35:10;;;;;;;12.30;8.27;;;5.30;99.90;;;;;;5051091;28;20633;-66
2022/01/09 06:37:36;;;;;;;9.20;8.20;;;5.30;99.90;;;;;;5050568;28;20229;-67
2022/01/09 06:40:02;;;;;;;10.77;9.67;;;5.30;99.90;;;;;;5050860;28;20277;-66
2022/01/09 06:42:28;;;;;;;9.63;8.77;;;5.30;99.90;;;;;;5050154;28;20182;-66
2022/01/09 06:44:53;;;;;;;10.60;8.30;;;5.30;99.90;;;;;;5050942;28;20175;-68
2022/01/09 06:47:19;;;;;;;8.60;7.93;;;5.30;99.90;;;;;;5050544;28;20256;-67
2022/01/09 06:49:45;;;;;;;16.77;8.57;;;5.20;99.90;;;;;;5050795;28;20201;-66
2022/01/09 06:52:10;;;;;;;14.10;8.83;;;5.20;99.90;;;;;;5049065;28;20190;-66
2022/01/09 06:54:36;;;;;;;7.90;7.43;;;5.20;99.90;;;;;;5050578;28;20576;-67
2022/01/09 06:57:02;;;;;;;8.30;7.60;;;5.20;99.90;;;;;;5050536;28;20253;-66
2022/01/09 06:59:28;;;;;;;9.40;8.23;;;5.20;99.90;;;;;;5051548;28;20222;-65
2022/01/09 07:01:53;;;;;;;8.13;7.73;;;5.30;99.90;;;;;;5054175;28;20707;-66
2022/01/09 07:04:19;;;;;;;8.33;7.63;;;5.30;99.90;;;;;;5052910;28;20223;-66
2022/01/09 07:06:44;;;;;;;9.00;8.13;;;5.30;99.90;;;;;;5054108;28;20194;-67
2022/01/09 07:09:10;;;;;;;8.87;6.47;;;5.40;99.90;;;;;;5052975;28;20233;-65
2022/01/09 07:11:36;;;;;;;9.50;8.53;;;5.40;99.90;;;;;;5054190;28;20174;-66
2022/01/09 07:14:01;;;;;;;12.47;8.00;;;5.40;99.90;;;;;;5069182;28;20219;-66
2022/01/09 07:16:27;;;;;;;8.07;7.47;;;5.40;99.90;;;;;;5053949;28;20229;-66
2022/01/09 07:18:53;;;;;;;9.03;8.30;;;5.40;99.90;;;;;;5053713;28;20290;-67
2022/01/09 07:21:18;;;;;;;8.03;7.23;;;5.40;99.90;;;;;;5053044;28;20217;-66
2022/01/09 07:23:44;;;;;;;9.13;8.33;;;5.40;99.90;;;;;;5052203;28;20273;-66
2022/01/09 07:26:09;;;;;;;9.03;8.20;;;5.40;99.90;;;;;;5054022;28;20183;-65
2022/01/09 07:28:35;;;;;;;10.97;8.37;;;5.40;99.90;;;;;;5053365;28;20202;-66
2022/01/09 07:31:01;;;;;;;10.00;7.97;;;5.40;99.90;;;;;;5057855;28;20174;-66
2022/01/09 07:33:27;;;;;;;11.57;8.43;;;5.30;99.90;;;;;;5061341;28;20194;-67
2022/01/09 07:35:52;;;;;;;15.23;8.67;;;5.30;99.90;;;;;;5053778;28;20183;-67
2022/01/09 07:38:18;;;;;;;8.00;7.43;;;5.30;99.90;;;;;;5053060;28;20284;-67
2022/01/09 07:40:43;;;;;;;14.23;8.60;;;5.30;99.90;;;;;;5053344;28;20351;-66
2022/01/09 07:43:09;;;;;;;10.27;8.57;;;5.30;99.90;;;;;;5052954;28;20186;-66
2022/01/09 07:45:35;;;;;;;8.67;7.87;;;5.30;99.90;;;;;;5053418;28;20411;-66
2022/01/09 07:48:02;;;;;;;10.00;7.90;;;5.30;99.90;;;;;;5053142;28;20198;-65
2022/01/09 07:50:28;;;;;;;9.07;7.97;;;5.30;99.90;;;;;;5053098;28;20262;-66
2022/01/09 07:52:54;;;;;;;10.30;7.40;;;5.30;99.90;;;;;;5052956;28;20181;-67
2022/01/09 07:55:22;;;;;;;9.20;7.93;;;5.30;99.90;;;;;;5053161;28;20171;-66
2022/01/09 07:57:48;;;;;;;8.33;7.60;;;5.20;99.90;;;;;;5052977;28;20201;-66
2022/01/09 08:00:16;;;;;;;8.70;8.00;;;5.20;99.90;;;;;;5053219;28;20195;-67
2022/01/09 08:02:42;;;;;;;8.50;7.80;;;5.20;99.90;;;;;;5052434;28;20224;-66
2022/01/09 08:05:09;;;;;;;7.80;7.40;;;5.20;99.90;;;;;;5051871;28;20657;-67
2022/01/09 08:07:35;;;;;;;7.73;7.20;;;5.10;99.90;;;;;;5052695;28;20198;-65
2022/01/09 08:10:01;;;;;;;8.23;7.40;;;5.10;99.90;;;;;;5052699;28;20237;-67
2022/01/09 08:12:26;;;;;;;8.00;7.30;;;5.10;99.90;;;;;;5051114;28;20183;-66
2022/01/09 08:14:52;;;;;;;7.70;7.10;;;5.00;99.90;;;;;;5052631;28;20234;-66
2022/01/09 08:17:17;;;;;;;9.67;8.70;;;5.00;99.90;;;;;;5052696;28;20199;-66
2022/01/09 08:19:43;;;;;;;8.40;7.70;;;5.00;99.90;;;;;;5050948;28;20633;-66
2022/01/09 08:22:09;;;;;;;10.37;8.17;;;4.90;99.90;;;;;;5052221;28;20215;-68
2022/01/09 08:24:36;;;;;;;8.37;7.40;;;4.90;99.90;;;;;;5052311;28;20653;-67
2022/01/09 08:27:02;;;;;;;8.73;7.57;;;4.90;99.90;;;;;;5052729;28;20262;-67
2022/01/09 08:29:28;;;;;;;9.03;8.20;;;5.00;99.90;;;;;;5052163;28;20201;-68
2022/01/09 08:31:54;;;;;;;9.77;8.87;;;5.00;99.90;;;;;;5052341;28;20258;-66
2022/01/09 08:34:19;;;;;;;9.43;8.50;;;5.00;99.90;;;;;;5051802;28;20191;-66
2022/01/09 08:36:45;;;;;;;9.50;8.87;;;5.00;99.90;;;;;;5051102;28;20272;-66
2022/01/09 08:39:11;;;;;;;9.30;8.37;;;5.00;99.90;;;;;;5052208;28;20215;-66
2022/01/09 08:41:37;;;;;;;11.43;8.73;;;5.00;99.90;;;;;;5052619;28;20233;-66
2022/01/09 08:44:04;;;;;;;8.77;8.07;;;5.00;99.90;;;;;;5051930;28;20179;-66
2022/01/09 08:46:31;;;;;;;8.80;8.00;;;5.00;99.90;;;;;;5052498;28;20183;-67
2022/01/09 08:48:58;;;;;;;8.43;7.63;;;5.00;99.90;;;;;;5051536;28;20262;-67
2022/01/09 08:51:24;;;;;;;9.43;8.67;;;5.00;99.90;;;;;;5051708;28;20179;-66
2022/01/09 08:53:50;;;;;;;9.77;9.07;;;5.00;99.90;;;;;;5051937;28;20705;-67
2022/01/09 08:56:18;;;;;;;10.00;9.20;;;5.10;99.90;;;;;;5051855;28;20224;-66
2022/01/09 08:58:44;;;;;;;15.43;10.83;;;5.20;99.90;;;;;;5052115;28;20221;-67
2022/01/09 09:01:09;;;;;;;9.53;8.87;;;5.20;99.90;;;;;;5051725;28;20202;-67
2022/01/09 09:03:40;;;;;;;9.03;8.23;;;5.20;99.90;;;;;;5050218;28;20262;-67
2022/01/09 09:06:10;;;;;;;7.60;7.10;;;5.30;99.90;;;;;;5050499;28;20179;-67
2022/01/09 09:08:36;;;;;;;7.87;7.37;;;5.40;99.90;;;;;;5051001;28;20226;-67
2022/01/09 09:11:02;;;;;;;13.40;8.10;;;5.40;99.90;;;;;;5051721;28;20229;-67
2022/01/09 09:13:28;;;;;;;8.30;7.63;;;5.50;99.90;;;;;;5051256;28;20174;-67
2022/01/09 09:15:54;;;;;;;9.10;8.30;;;5.50;99.90;;;;;;5050504;28;20187;-66
2022/01/09 09:18:19;;;;;;;8.47;7.73;;;5.50;99.90;;;;;;5051549;28;20241;-66
2022/01/09 09:20:45;;;;;;;11.07;8.33;;;5.50;99.90;;;;;;5051349;28;20337;-67
2022/01/09 09:23:11;;;;;;;8.50;7.33;;;5.60;99.90;;;;;;5050755;28;20254;-67
2022/01/09 09:25:37;;;;;;;10.40;8.43;;;5.60;99.90;;;;;;5051538;28;20183;-67
2022/01/09 09:28:03;;;;;;;9.27;8.33;;;5.60;99.90;;;;;;5050340;28;20775;-66
2022/01/09 09:30:29;;;;;;;8.50;7.80;;;5.70;99.90;;;;;;5051023;28;20228;-68
2022/01/09 09:32:54;;;;;;;10.63;8.37;;;5.70;99.90;;;;;;5051348;28;20254;-69
2022/01/09 09:35:20;;;;;;;7.80;7.30;;;5.80;99.90;;;;;;5051349;28;20852;-68
2022/01/09 09:37:46;;;;;;;11.17;7.53;;;5.80;99.90;;;;;;5050550;28;20194;-69
2022/01/09 09:40:12;;;;;;;9.27;8.47;;;5.80;99.90;;;;;;5051237;28;20199;-68
2022/01/09 09:42:39;;;;;;;8.07;7.37;;;5.70;99.90;;;;;;5049794;28;20229;-68
2022/01/09 09:45:06;;;;;;;8.53;7.67;;;5.80;99.90;;;;;;5050246;28;20183;-67
2022/01/09 09:47:33;;;;;;;8.50;7.80;;;5.70;99.90;;;;;;5051141;28;20582;-65
2022/01/09 09:49:59;;;;;;;9.40;8.60;;;5.70;99.90;;;;;;5051419;28;20185;-67
2022/01/09 09:52:25;;;;;;;10.00;8.30;;;5.70;99.90;;;;;;5049669;28;20273;-66
2022/01/09 09:54:52;;;;;;;10.13;9.33;;;5.60;99.90;;;;;;5051599;28;20186;-68
2022/01/09 09:57:18;;;;;;;11.07;8.17;;;5.50;99.90;;;;;;5063945;28;20251;-67
2022/01/09 09:59:44;;;;;;;9.10;8.13;;;5.40;99.90;;;;;;5070000;28;20584;-67
2022/01/09 10:02:17;;;;;;;9.43;8.83;;;5.50;99.90;;;;;;5096694;28;20207;-67
2022/01/09 10:04:57;;;;;;;10.07;9.30;;;5.40;99.90;;;;;;5050944;28;20175;-67
2022/01/09 10:07:23;;;;;;;11.53;8.50;;;5.50;99.90;;;;;;5050989;28;20194;-66
2022/01/09 10:10:00;;;;;;;9.93;9.03;;;5.50;99.90;;;;;;5051145;28;20174;-66
2022/01/09 10:12:32;;;;;;;8.30;7.70;;;5.40;99.90;;;;;;5059090;28;20276;-66
2022/01/09 10:15:00;;;;;;;8.40;7.60;;;5.40;99.90;;;;;;5062907;28;20270;-66
2022/01/09 10:17:27;;;;;;;9.23;8.47;;;5.40;99.90;;;;;;5049580;28;20195;-68
2022/01/09 10:20:03;;;;;;;8.37;7.87;;;5.50;99.90;;;;;;5050876;28;20201;-67
2022/01/09 10:22:49;;;;;;;9.67;8.83;;;5.60;99.90;;;;;;5050016;28;20648;-68
2022/01/09 10:25:25;;;;;;;9.67;8.77;;;5.70;99.90;;;;;;5031164;28;20226;-68
2022/01/09 10:28:14;;;;;;;11.20;8.60;;;5.70;99.90;;;;;;5039439;28;20260;-68
2022/01/09 10:30:42;;;;;;;9.27;8.47;;;5.80;99.90;;;;;;5050816;28;20199;-68
2022/01/09 10:33:12;;;;;;;9.20;8.30;;;5.80;99.90;;;;;;5050802;28;20179;-68
2022/01/09 10:35:40;;;;;;;8.57;7.90;;;5.80;99.90;;;;;;5055166;28;20175;-68
2022/01/09 10:38:29;;;;;;;12.00;9.33;;;5.70;99.90;;;;;;5053482;28;20203;-68
2022/01/09 10:41:01;;;;;;;9.93;8.40;;;5.80;99.90;;;;;;5053746;28;20202;-68
2022/01/09 10:43:35;;;;;;;9.63;8.73;;;5.80;99.90;;;;;;5053047;28;20237;-68
2022/01/09 10:46:01;;;;;;;9.53;8.73;;;5.80;99.90;;;;;;5054666;28;20174;-69
2022/01/09 10:48:43;;;;;;;10.33;9.33;;;5.80;99.90;;;;;;5053291;28;20195;-68
2022/01/09 10:51:13;;;;;;;9.67;8.50;;;5.80;99.90;;;;;;5054682;28;20170;-68
2022/01/09 10:53:41;;;;;;;10.37;9.23;;;5.80;99.90;;;;;;5052770;28;20214;-68
2022/01/09 10:56:11;;;;;;;11.80;8.10;;;5.80;99.90;;;;;;5052685;28;20179;-66
2022/01/09 10:58:50;;;;;;;8.63;8.13;;;5.80;99.90;;;;;;5054123;28;20536;-67
2022/01/09 11:01:24;;;;;;;13.53;8.97;;;5.80;99.90;;;;;;5052776;28;20207;-67
2022/01/09 11:03:56;;;;;;;12.47;8.83;;;5.80;99.90;;;;;;5053842;28;20171;-67
2022/01/09 11:06:23;;;;;;;8.67;8.07;;;5.80;99.90;;;;;;5053047;28;20183;-67
2022/01/09 11:08:50;;;;;;;9.37;8.67;;;5.80;99.90;;;;;;5054312;28;20308;-67
2022/01/09 11:13:52;;;;;;;8.53;7.93;;;6.00;99.90;;;;;;5054084;28;20182;-66
2022/01/09 11:16:34;;;;;;;11.17;9.43;;;6.20;99.90;;;;;;5053733;28;20282;-67
2022/01/09 11:19:06;;;;;;;8.67;7.90;;;6.20;99.90;;;;;;5053857;28;20217;-67
2022/01/09 11:21:32;;;;;;;9.33;8.07;;;6.30;99.90;;;;;;5051026;28;20215;-67
2022/01/09 11:24:18;;;;;;;9.53;8.60;;;6.30;99.90;;;;;;5053571;28;20225;-67
2022/01/09 11:27:46;;;;;;;9.47;8.60;;;6.40;99.90;;;;;;5053319;28;20662;-67
2022/01/09 11:30:14;;;;;;;8.67;7.97;;;6.30;99.90;;;;;;5031350;28;20202;-67
2022/01/09 11:33:17;;;;;;;9.23;7.57;;;6.20;99.90;;;;;;5052661;28;20284;-67
2022/01/09 11:35:54;;;;;;;8.67;7.80;;;6.30;99.90;;;;;;5052348;28;20207;-67
2022/01/09 11:38:38;;;;;;;8.63;7.90;;;6.30;99.90;;;;;;5053290;28;20199;-67
2022/01/09 11:41:18;;;;;;;8.37;7.90;;;6.30;99.90;;;;;;5053637;28;20236;-67
2022/01/09 11:44:02;;;;;;;8.50;7.80;;;6.30;99.90;;;;;;5053099;28;20186;-67
2022/01/09 11:46:30;;;;;;;9.67;8.70;;;6.40;99.90;;;;;;5052304;28;20257;-67
2022/01/09 11:48:55;;;;;;;8.50;7.60;;;6.60;99.90;;;;;;5053188;28;20222;-67
2022/01/09 11:51:25;;;;;;;8.10;7.33;;;7.00;99.90;;;;;;5066143;28;20224;-67
2022/01/09 11:54:12;;;;;;;10.43;9.43;;;7.50;99.90;;;;;;5052923;28;20647;-67
2022/01/09 11:56:52;;;;;;;8.93;8.30;;;7.80;99.90;;;;;;5051504;28;20175;-67
2022/01/09 11:59:29;;;;;;;9.90;8.90;;;7.80;99.90;;;;;;5053254;28;20544;-67
2022/01/09 12:02:02;;;;;;;8.63;7.93;;;7.80;99.90;;;;;;5051604;28;20555;-67
2022/01/09 12:04:30;;;;;;;10.07;9.17;;;7.90;99.90;;;;;;5052892;28;20179;-67
2022/01/09 12:07:03;;;;;;;8.20;7.40;;;8.00;99.90;;;;;;5052728;28;20178;-67
2022/01/09 12:09:41;;;;;;;7.70;7.00;;;8.00;99.90;;;;;;5052912;28;20174;-67
2022/01/09 12:12:10;;;;;;;7.23;6.73;;;8.10;99.90;;;;;;5052706;28;20787;-67
2022/01/09 12:14:42;;;;;;;7.07;6.47;;;8.30;99.90;;;;;;5052548;28;20649;-68
2022/01/09 12:17:28;;;;;;;7.30;6.57;;;8.70;99.90;;;;;;5052535;28;20183;-67
2022/01/09 12:20:09;;;;;;;6.77;6.27;;;8.80;99.90;;;;;;5052126;28;20179;-67
2022/01/09 12:22:45;;;;;;;9.40;7.43;;;8.60;99.90;;;;;;5052184;28;20221;-68
2022/01/09 12:25:26;;;;;;;6.80;6.30;;;8.60;99.90;;;;;;5064667;28;20188;-67
2022/01/09 12:27:54;;;;;;;7.60;7.00;;;8.30;99.90;;;;;;5049888;28;20194;-67
2022/01/09 12:30:41;;;;;;;9.63;7.10;;;8.00;99.90;;;;;;5052595;28;20163;-67
2022/01/09 12:33:22;;;;;;;8.63;7.87;;;7.70;99.90;;;;;;5052118;28;20233;-66
2022/01/09 12:36:11;;;;;;;8.97;7.13;;;7.50;99.90;;;;;;5052580;28;20593;-67
2022/01/09 12:38:42;;;;;;;11.47;8.00;;;7.30;99.90;;;;;;5031087;28;20547;-67
2022/01/09 12:41:15;;;;;;;7.60;7.10;;;7.20;99.90;;;;;;5065903;28;20203;-67
2022/01/09 12:43:41;;;;;;;8.60;7.93;;;7.10;99.90;;;;;;5050536;28;20611;-68
2022/01/09 12:46:13;;;;;;;12.00;7.93;;;7.00;99.90;;;;;;5052198;28;20198;-68
2022/01/09 12:48:43;;;;;;;8.70;7.70;;;6.90;99.90;;;;;;5050230;28;20201;-68
2022/01/09 12:51:12;;;;;;;12.03;8.87;;;6.80;99.90;;;;;;5050735;28;20176;-68
2022/01/09 12:53:44;;;;;;;9.07;8.23;;;6.80;99.90;;;;;;5050549;28;20265;-68
2022/01/09 12:56:12;;;;;;;12.27;9.00;;;6.80;99.90;;;;;;5050694;28;20175;-67
2022/01/09 12:58:44;;;;;;;9.63;8.93;;;6.90;99.90;;;;;;5083147;28;20198;-67
2022/01/09 13:01:12;;;;;;;8.90;7.97;;;6.90;99.90;;;;;;5053476;28;20203;-67